Time;durP1;ratioP1;P1;durP2;ratioP2;P2;SDS_P1;SDS_P2;PMS_P1;PMS_P2;Temp;Humidity;BMP_temperature;BMP_pressure;BME280_temperature;BME280_humidity;BME280_pressure;Samples;Min_cycle;Max_cycle;Signal;HPM_P1;HPM_P2
2022/03/17 00:00:18;;;;;;;21.88;19.58;;;;;;;11.15;56.82;100455.53;1084400;54;20042;-77
2022/03/17 00:01:20;;;;;;;21.00;18.63;;;;;;;11.15;56.73;100442.16;1084424;54;20039;-78
2022/03/17 00:02:25;;;;;;;22.73;20.33;;;;;;;11.05;57.14;100442.97;1084566;54;20064;-77
2022/03/17 00:03:26;;;;;;;23.85;21.52;;;;;;;11.00;57.48;100447.09;1084677;54;20030;-78
2022/03/17 00:04:30;;;;;;;24.30;21.80;;;;;;;11.04;57.33;100440.47;1084433;54;20063;-77
2022/03/17 00:05:32;;;;;;;22.92;20.45;;;;;;;11.06;57.10;100444.69;1084516;54;20062;-77
2022/03/17 00:06:36;;;;;;;21.05;18.85;;;;;;;11.10;57.17;100447.09;1084745;54;20039;-77
2022/03/17 00:07:41;;;;;;;21.27;19.08;;;;;;;11.08;56.83;100437.38;1084632;54;20042;-76
2022/03/17 00:08:42;;;;;;;21.40;19.20;;;;;;;11.11;57.02;100443.44;1083785;54;20034;-78
2022/03/17 00:09:46;;;;;;;23.35;19.52;;;;;;;11.08;56.88;100434.69;1084365;54;20572;-77
2022/03/17 00:10:48;;;;;;;22.45;20.10;;;;;;;11.08;57.02;100437.38;1084685;54;20046;-78
2022/03/17 00:11:52;;;;;;;24.25;20.48;;;;;;;11.09;56.94;100435.56;1084803;54;20065;-79
2022/03/17 00:12:54;;;;;;;22.73;20.33;;;;;;;11.05;56.83;100440.31;1085471;46;20059;-77
2022/03/17 00:13:58;;;;;;;22.52;20.17;;;;;;;11.01;56.90;100443.41;1084990;54;20034;-77
2022/03/17 00:15:04;;;;;;;24.02;20.85;;;;;;;11.04;57.07;100441.31;1084946;54;20042;-78
2022/03/17 00:16:10;;;;;;;23.02;20.58;;;;;;;11.01;57.10;100443.41;1085028;54;20041;-77
2022/03/17 00:17:14;;;;;;;22.40;20.00;;;;;;;11.02;57.25;100440.59;1084960;54;20042;-77
2022/03/17 00:18:16;;;;;;;22.77;20.40;;;;;;;10.98;57.39;100439.19;1085188;39;20437;-78
2022/03/17 00:19:20;;;;;;;22.17;19.80;;;;;;;11.00;57.02;100442.56;1085090;54;20066;-78
2022/03/17 00:20:23;;;;;;;23.23;19.85;;;;;;;11.00;57.42;100444.41;1085189;46;20054;-77
2022/03/17 00:21:27;;;;;;;23.75;21.23;;;;;;;10.94;57.38;100445.81;1085211;54;20106;-78
2022/03/17 00:22:29;;;;;;;23.38;20.90;;;;;;;10.93;57.58;100438.75;1084945;54;20030;-79
2022/03/17 00:23:33;;;;;;;22.67;20.23;;;;;;;10.96;57.56;100440.31;1084925;54;20082;-78
2022/03/17 00:24:36;;;;;;;22.85;20.50;;;;;;;10.86;57.75;100435.78;1084888;54;20042;-79
2022/03/17 00:25:41;;;;;;;24.50;21.90;;;;;;;10.81;57.81;100432.69;1084283;54;20042;-78
2022/03/17 00:26:43;;;;;;;23.70;21.13;;;;;;;10.83;57.87;100436.03;1085085;46;20042;-78
2022/03/17 00:27:47;;;;;;;23.48;21.00;;;;;;;10.87;57.71;100440.16;1084932;54;20034;-78
2022/03/17 00:28:49;;;;;;;20.42;18.23;;;;;;;10.91;57.49;100438.88;1084965;47;20034;-77
2022/03/17 00:29:54;;;;;;;20.50;18.30;;;;;;;10.94;57.28;100432.44;1084691;54;20045;-78
2022/03/17 00:30:56;;;;;;;19.42;16.33;;;;;;;10.95;57.40;100431.44;1085002;47;20049;-77
2022/03/17 00:32:03;;;;;;;20.02;17.70;;;;;;;10.95;57.06;100428.78;1085201;39;20426;-77
2022/03/17 00:33:07;;;;;;;19.77;17.42;;;;;;;10.97;57.06;100429.47;1084791;54;20046;-77
2022/03/17 00:34:09;;;;;;;20.88;18.67;;;;;;;10.92;56.90;100431.72;1084748;54;20064;-77
2022/03/17 00:36:30;;;;;;;20.77;18.60;;;;;;;10.93;56.88;100430.72;1084587;54;20564;-78
2022/03/17 00:37:31;;;;;;;21.55;19.25;;;;;;;10.92;57.00;100429.88;1084794;54;20061;-77
2022/03/17 00:38:35;;;;;;;21.20;19.00;;;;;;;10.95;56.40;100434.13;1084752;54;20038;-77
2022/03/17 00:39:37;;;;;;;20.83;18.67;;;;;;;10.96;56.70;100438.47;1084655;54;20069;-77
2022/03/17 00:40:42;;;;;;;18.77;16.77;;;;;;;11.00;56.44;100437.22;1084938;54;20034;-77
2022/03/17 00:41:44;;;;;;;22.20;19.80;;;;;;;11.01;56.42;100436.25;1084353;54;20046;-78
2022/03/17 00:42:48;;;;;;;20.58;18.52;;;;;;;11.03;56.09;100441.44;1084390;54;20145;-78
2022/03/17 00:43:50;;;;;;;21.45;19.25;;;;;;;11.05;55.99;100428.78;1084766;54;20050;-77
2022/03/17 00:44:54;;;;;;;20.55;18.42;;;;;;;11.06;55.91;100431.31;1084945;54;20046;-77
2022/03/17 00:45:56;;;;;;;21.00;18.83;;;;;;;11.04;56.08;100437.78;1085011;54;20054;-77
2022/03/17 00:47:02;;;;;;;20.85;18.25;;;;;;;11.04;55.74;100430.63;1084742;54;20050;-77
2022/03/17 00:48:05;;;;;;;22.00;19.63;;;;;;;11.03;55.88;100439.63;1084961;54;20049;-79
2022/03/17 00:49:12;;;;;;;21.75;19.27;;;;;;;11.03;55.97;100441.44;1084829;54;20046;-78
2022/03/17 00:50:13;;;;;;;20.45;17.83;;;;;;;11.00;56.03;100437.22;1084774;54;20058;-78
2022/03/17 00:51:18;;;;;;;22.13;19.38;;;;;;;11.00;55.88;100445.25;1085402;39;20453;-77
2022/03/17 00:52:20;;;;;;;19.55;17.55;;;;;;;11.01;55.84;100438.03;1085112;54;20050;-78
2022/03/17 00:53:24;;;;;;;20.33;17.65;;;;;;;11.03;55.71;100428.94;1085365;54;20073;-76
2022/03/17 00:54:26;;;;;;;20.08;18.00;;;;;;;11.02;55.84;100427.22;1085781;39;20448;-79
2022/03/17 00:55:30;;;;;;;22.83;20.45;;;;;;;10.95;56.18;100434.13;1085038;54;20026;-79
2022/03/17 00:56:32;;;;;;;23.15;20.63;;;;;;;10.93;56.34;100425.38;1084912;54;20034;-77
2022/03/17 00:57:37;;;;;;;22.55;20.15;;;;;;;10.89;56.19;100427.50;1084997;54;20580;-78
2022/03/17 00:58:38;;;;;;;21.65;19.42;;;;;;;10.90;56.45;100436.34;1086250;54;20038;-79
2022/03/17 00:59:43;;;;;;;22.77;20.38;;;;;;;10.90;56.72;100433.66;1095973;46;20042;-78
2022/03/17 01:00:47;;;;;;;21.77;19.48;;;;;;;10.87;56.38;100431.25;1086763;54;20039;-78
2022/03/17 01:01:48;;;;;;;22.80;20.45;;;;;;;10.83;56.58;100429.88;1085230;54;20630;-79
2022/03/17 01:02:57;;;;;;;22.70;19.60;;;;;;;10.76;57.01;100432.22;1087025;54;20026;-79
2022/03/17 01:03:58;;;;;;;21.35;19.13;;;;;;;10.76;57.07;100427.75;1088774;54;20014;-78
2022/03/17 01:05:06;;;;;;;21.58;19.38;;;;;;;10.79;57.11;100439.13;1088638;54;20017;-79
2022/03/17 01:06:10;;;;;;;19.50;17.40;;;;;;;10.81;56.88;100442.53;1094955;46;20078;-79
2022/03/17 01:07:17;;;;;;;18.92;16.90;;;;;;;10.85;56.97;100436.75;1088603;54;20038;-79
2022/03/17 01:08:22;;;;;;;19.25;17.25;;;;;;;10.89;56.74;100440.00;1088524;54;20050;-80
2022/03/17 01:09:24;;;;;;;17.98;16.08;;;;;;;10.93;56.86;100433.41;1088266;54;20039;-77
2022/03/17 01:10:28;;;;;;;18.95;16.92;;;;;;;10.96;56.96;100437.63;1089317;46;20018;-77
2022/03/17 01:11:31;;;;;;;19.75;16.40;;;;;;;10.95;56.64;100439.47;1088028;54;20043;-77
2022/03/17 01:12:35;;;;;;;18.73;16.83;;;;;;;10.95;56.81;100450.19;1087211;54;20042;-77
2022/03/17 01:13:42;;;;;;;18.77;16.77;;;;;;;10.93;56.66;100446.78;1088515;46;20041;-77
2022/03/17 01:14:43;;;;;;;17.90;16.00;;;;;;;10.97;56.95;100447.34;1087210;54;20053;-77
2022/03/17 01:15:48;;;;;;;16.15;14.40;;;;;;;11.01;56.87;100449.63;1087072;54;20046;-77
2022/03/17 01:16:50;;;;;;;17.52;15.63;;;;;;;11.04;56.48;100444.00;1086864;54;20034;-78
2022/03/17 01:17:57;;;;;;;17.38;15.57;;;;;;;11.02;56.63;100448.63;1085300;54;20038;-77
2022/03/17 01:18:58;;;;;;;18.63;16.63;;;;;;;10.99;56.94;100446.22;1084623;54;20038;-79
2022/03/17 01:20:03;;;;;;;18.73;16.73;;;;;;;10.98;57.13;100447.19;1084636;54;20038;-78
2022/03/17 01:21:06;;;;;;;18.88;16.88;;;;;;;10.96;57.33;100449.16;1085138;54;20038;-78
2022/03/17 01:22:11;;;;;;;17.30;15.50;;;;;;;10.99;57.23;100448.06;1085399;46;20035;-78
2022/03/17 01:23:12;;;;;;;18.45;15.75;;;;;;;10.97;57.23;100448.19;1085368;54;20030;-79
2022/03/17 01:24:17;;;;;;;17.83;15.95;;;;;;;10.99;57.20;100456.91;1085110;54;20046;-77
2022/03/17 01:25:18;;;;;;;20.60;17.83;;;;;;;10.92;57.75;100453.13;1085156;39;20453;-78
2022/03/17 01:26:23;;;;;;;20.00;17.90;;;;;;;10.89;57.87;100446.22;1084658;54;20122;-78
2022/03/17 01:27:25;;;;;;;18.50;16.60;;;;;;;10.90;57.97;100441.69;1084749;54;20561;-77
2022/03/17 01:28:30;;;;;;;20.65;18.45;;;;;;;10.88;57.64;100447.19;1084764;47;20033;-78
2022/03/17 01:29:32;;;;;;;20.27;17.10;;;;;;;10.85;58.03;100449.31;1084486;54;20079;-77
2022/03/17 01:30:37;;;;;;;21.60;19.30;;;;;;;10.82;58.03;100445.03;1084842;54;20062;-77
2022/03/17 01:31:39;;;;;;;22.40;19.90;;;;;;;10.78;57.83;100438.28;1084418;54;20037;-79
2022/03/17 01:32:43;;;;;;;22.42;19.90;;;;;;;10.72;57.98;100442.34;1084518;47;20026;-78
2022/03/17 01:33:47;;;;;;;23.63;21.02;;;;;;;10.69;57.78;100433.78;1084548;47;20030;-78
2022/03/17 01:34:53;;;;;;;23.83;21.13;;;;;;;10.67;57.75;100441.94;1084958;54;20026;-78
2022/03/17 01:35:55;;;;;;;23.67;20.38;;;;;;;10.68;57.82;100440.09;1087213;47;20038;-78
2022/03/17 01:37:12;;;;;;;21.38;19.08;;;;;;;10.66;57.83;100440.25;1086929;54;20034;-78
2022/03/17 01:38:16;;;;;;;22.38;19.90;;;;;;;10.68;57.52;100443.59;1088219;46;20035;-78
2022/03/17 01:39:18;;;;;;;23.73;20.52;;;;;;;10.66;57.57;100445.59;1084939;54;20042;-78
2022/03/17 01:40:22;;;;;;;24.15;21.58;;;;;;;10.61;57.57;100447.81;1084169;54;20038;-77
2022/03/17 01:41:24;;;;;;;24.05;21.52;;;;;;;10.53;57.70;100437.78;1084457;54;20038;-79
2022/03/17 01:42:28;;;;;;;25.42;22.73;;;;;;;10.48;57.74;100441.88;1084686;54;20042;-78
2022/03/17 01:43:32;;;;;;;25.75;22.95;;;;;;;10.48;57.94;100436.50;1084614;54;20061;-79
2022/03/17 01:44:35;;;;;;;26.60;22.30;;;;;;;10.47;57.80;100441.00;1084870;47;20046;-78
2022/03/17 01:45:39;;;;;;;25.17;22.58;;;;;;;10.45;57.65;100441.16;1084761;54;20038;-78
2022/03/17 01:48:00;;;;;;;22.70;20.30;;;;;;;10.53;57.33;100443.13;1085001;39;20442;-80
2022/03/17 01:49:04;;;;;;;22.80;19.75;;;;;;;10.57;57.26;100441.06;1084697;54;20046;-78
2022/03/17 01:50:11;;;;;;;21.98;19.63;;;;;;;10.59;57.27;100444.41;1084457;54;20030;-78
2022/03/17 01:51:13;;;;;;;22.98;20.42;;;;;;;10.58;57.41;100440.06;1084572;54;20042;-78
2022/03/17 01:52:17;;;;;;;24.38;21.67;;;;;;;10.56;57.46;100447.38;1084507;54;20034;-79
2022/03/17 01:53:22;;;;;;;24.17;20.10;;;;;;;10.52;57.43;100435.25;1084270;54;20090;-77
2022/03/17 01:54:24;;;;;;;23.90;21.30;;;;;;;10.56;57.30;100444.69;1084821;54;20031;-78
2022/03/17 01:55:30;;;;;;;22.95;20.48;;;;;;;10.56;57.39;100439.34;1084566;54;20035;-77
2022/03/17 01:56:32;;;;;;;23.00;20.50;;;;;;;10.57;57.37;100443.72;1084691;54;20054;-79
2022/03/17 01:57:38;;;;;;;23.00;20.58;;;;;;;10.55;57.41;100443.00;1084588;54;20041;-78
2022/03/17 01:58:40;;;;;;;23.70;21.20;;;;;;;10.53;57.42;100447.63;1084484;54;20042;-78
2022/03/17 01:59:44;;;;;;;24.30;21.67;;;;;;;10.50;57.52;100447.91;1084686;54;20043;-78
2022/03/17 02:00:47;;;;;;;24.80;22.15;;;;;;;10.49;57.54;100440.84;1084540;54;20050;-77
2022/03/17 02:01:52;;;;;;;24.48;21.88;;;;;;;10.45;57.63;100438.47;1084048;54;20036;-77
2022/03/17 02:02:56;;;;;;;25.15;22.45;;;;;;;10.42;57.59;100452.09;1084182;54;20035;-77
2022/03/17 02:03:58;;;;;;;24.90;22.30;;;;;;;10.45;57.93;100456.31;1084236;54;20038;-78
2022/03/17 02:05:06;;;;;;;24.50;21.90;;;;;;;10.48;57.80;100444.53;1084187;54;20034;-77
2022/03/17 02:06:07;;;;;;;23.92;21.02;;;;;;;10.45;57.71;100454.50;1084720;39;20480;-77
2022/03/17 02:07:14;;;;;;;24.42;21.73;;;;;;;10.45;57.67;100454.50;1084533;47;20034;-78
2022/03/17 02:08:15;;;;;;;24.75;22.13;;;;;;;10.42;57.62;100452.09;1084237;54;20561;-77
2022/03/17 02:09:24;;;;;;;25.73;22.90;;;;;;;10.38;58.06;100449.81;1084337;47;20581;-78
2022/03/17 02:13:08;;;;;;;25.40;22.75;;;;;;;10.29;58.01;100452.28;1084204;54;20038;-78
2022/03/17 02:13:09;;;;;;;27.58;23.90;;;;;;;10.22;58.09;100453.81;1084847;54;20042;-77
2022/03/17 02:14:13;;;;;;;25.40;22.70;;;;;;;10.23;57.95;100449.28;1084563;54;20034;-77
2022/03/17 02:15:17;;;;;;;27.65;24.75;;;;;;;10.22;57.68;100453.81;1084445;54;20039;-78
2022/03/17 02:16:19;;;;;;;28.70;24.35;;;;;;;10.20;57.70;100445.06;1085339;46;20050;-77
2022/03/17 02:17:24;;;;;;;25.42;22.73;;;;;;;10.22;57.78;100453.81;1084664;54;20038;-77
2022/03/17 02:18:28;;;;;;;25.23;22.45;;;;;;;10.24;57.73;100445.66;1084693;54;20070;-79
2022/03/17 02:19:30;;;;;;;25.73;22.92;;;;;;;10.22;57.65;100450.25;1084327;54;20577;-78
2022/03/17 02:20:38;;;;;;;26.23;22.73;;;;;;;10.21;57.53;100451.25;1084773;46;20058;-78
2022/03/17 02:21:40;;;;;;;25.40;22.70;;;;;;;10.21;57.74;100456.59;1084893;54;20071;-78
2022/03/17 02:22:46;;;;;;;25.02;22.42;;;;;;;10.25;57.56;100447.34;1084947;39;20413;-77
2022/03/17 02:26:26;;;;;;;24.58;21.98;;;;;;;10.28;57.40;100447.09;1084902;39;20450;-78
2022/03/17 02:27:33;;;;;;;23.23;20.42;;;;;;;10.27;57.31;100445.38;1084429;54;20090;-79
2022/03/17 02:28:37;;;;;;;20.67;18.48;;;;;;;10.35;57.09;100442.03;1085157;54;20042;-78
2022/03/17 02:29:38;;;;;;;21.70;19.40;;;;;;;10.39;57.04;100446.19;1085109;54;20131;-78
2022/03/17 02:30:43;;;;;;;21.42;19.13;;;;;;;10.41;57.06;100445.06;1085448;54;20046;-79
2022/03/17 02:31:44;;;;;;;21.38;19.17;;;;;;;10.44;57.00;100433.25;1086390;54;20624;-78
2022/03/17 02:32:49;;;;;;;20.23;17.65;;;;;;;10.47;56.64;100441.00;1086579;54;20026;-77
2022/03/17 02:33:51;;;;;;;21.20;19.00;;;;;;;10.44;56.89;100443.94;1087085;46;20053;-78
2022/03/17 02:34:55;;;;;;;20.15;17.65;;;;;;;10.45;56.77;100432.25;1084221;54;20038;-78
2022/03/17 02:36:00;;;;;;;20.55;18.17;;;;;;;10.43;56.81;100437.75;1084437;54;20141;-78
2022/03/17 02:37:02;;;;;;;20.80;18.60;;;;;;;10.47;56.62;100440.16;1084881;54;20185;-76
2022/03/17 02:38:06;;;;;;;19.35;17.27;;;;;;;10.50;56.68;100439.88;1085001;54;20039;-76
2022/03/17 02:39:11;;;;;;;20.38;18.17;;;;;;;10.49;56.62;100433.69;1084826;54;20058;-76
2022/03/17 02:40:15;;;;;;;20.30;17.85;;;;;;;10.48;56.67;100436.50;1084644;54;20023;-77
2022/03/17 02:41:24;;;;;;;20.55;18.38;;;;;;;10.50;56.45;100434.53;1085111;54;20054;-76
2022/03/17 02:42:30;;;;;;;20.67;18.48;;;;;;;10.45;56.58;100441.16;1084746;54;20039;-76
2022/03/17 02:43:34;;;;;;;22.23;18.90;;;;;;;10.48;56.50;100440.03;1085515;39;20516;-76
2022/03/17 02:44:36;;;;;;;21.40;18.88;;;;;;;10.47;56.44;100441.00;1085245;54;20686;-76
2022/03/17 02:45:40;;;;;;;21.52;19.20;;;;;;;10.47;56.27;100443.66;1085526;54;20050;-76
2022/03/17 02:46:42;;;;;;;20.23;17.35;;;;;;;10.48;56.14;100441.88;1085082;54;20046;-77
2022/03/17 02:47:46;;;;;;;22.85;20.48;;;;;;;10.49;56.41;100440.84;1084828;54;20038;-77
2022/03/17 02:48:47;;;;;;;22.13;19.83;;;;;;;10.41;56.33;100447.72;1085199;54;20039;-77
2022/03/17 02:49:52;;;;;;;23.70;20.35;;;;;;;10.37;56.55;100443.66;1085647;39;20684;-77
2022/03/17 02:50:56;;;;;;;22.70;20.30;;;;;;;10.35;56.51;100445.56;1085046;54;20035;-78
2022/03/17 02:51:58;;;;;;;23.88;20.77;;;;;;;10.36;56.34;100441.91;1084768;54;20034;-77
2022/03/17 02:53:05;;;;;;;24.65;20.75;;;;;;;10.35;56.41;100442.91;1085261;54;20057;-77
2022/03/17 02:54:06;;;;;;;22.63;20.23;;;;;;;10.37;56.39;100438.31;1085459;46;20026;-77
2022/03/17 02:55:20;;;;;;;23.83;21.17;;;;;;;10.36;56.17;100443.72;1087497;54;20022;-78
2022/03/17 02:56:22;;;;;;;20.05;17.85;;;;;;;10.39;56.09;100444.34;1089016;46;20045;-78
2022/03/17 02:57:27;;;;;;;22.10;19.70;;;;;;;10.39;56.17;100444.34;1087467;54;20085;-78
2022/03/17 03:04:18;;;;;;;24.27;20.42;;;;;;;10.30;56.06;100445.97;1088078;54;20128;-80
2022/03/17 03:05:24;;;;;;;21.35;19.13;;;;;;;10.27;55.79;100445.38;1088138;54;20035;-81
2022/03/17 03:06:29;;;;;;;22.88;20.25;;;;;;;10.27;55.97;100448.06;1088091;54;20805;-81
2022/03/17 03:07:41;;;;;;;22.90;20.23;;;;;;;10.29;55.66;100449.63;1088119;54;20026;-79
2022/03/17 03:08:44;;;;;;;21.10;18.83;;;;;;;10.29;55.78;100443.44;1089774;39;20895;-80
2022/03/17 03:09:51;;;;;;;23.88;21.38;;;;;;;10.29;55.76;100454.97;1101524;39;20684;-80
2022/03/17 03:13:07;;;;;;;22.20;19.10;;;;;;;10.23;55.68;100452.81;1088364;54;20022;-82
2022/03/17 03:14:40;;;;;;;24.33;19.60;;;;;;;10.17;55.58;100463.19;1088441;54;20814;-81
2022/03/17 03:15:42;;;;;;;24.40;21.73;;;;;;;10.18;55.72;100457.69;1088681;54;20764;-82
2022/03/17 03:18:32;;;;;;;24.63;21.95;;;;;;;10.13;56.16;100459.94;1088425;54;20035;-82
2022/03/17 03:22:15;;;;;;;23.98;20.90;;;;;;;10.06;55.79;100466.78;1088441;54;20026;-80
2022/03/17 03:23:53;;;;;;;23.73;19.95;;;;;;;10.08;56.15;100478.16;1088356;54;20025;-81
2022/03/17 03:27:29;;;;;;;24.98;21.88;;;;;;;10.04;55.37;100466.91;1088341;54;20034;-83
2022/03/17 03:29:27;;;;;;;;;;;;;;;;;;;;;
2022/03/17 03:30:32;;;;;;;20.60;17.50;;;;;;;10.14;55.74;100470.47;1088280;54;20018;-81
2022/03/17 03:31:34;;;;;;;19.30;17.20;;;;;;;10.22;55.54;100466.31;1088225;54;20022;-81
2022/03/17 03:32:39;;;;;;;19.83;17.48;;;;;;;10.26;55.26;100470.41;1088268;54;20018;-79
2022/03/17 03:33:43;;;;;;;21.20;18.00;;;;;;;10.25;55.23;100469.56;1088248;54;20042;-80
2022/03/17 03:34:45;;;;;;;19.48;17.38;;;;;;;10.33;55.10;100470.75;1088100;54;20045;-81
2022/03/17 03:38:23;;;;;;;19.73;17.60;;;;;;;10.35;54.81;100480.31;1093593;39;20793;-80
2022/03/17 03:39:24;;;;;;;20.35;16.60;;;;;;;10.39;54.90;100475.56;1088108;54;20038;-80
2022/03/17 03:40:29;;;;;;;20.00;17.80;;;;;;;10.43;54.60;100479.69;1087944;54;20022;-81
2022/03/17 03:41:30;;;;;;;21.55;19.25;;;;;;;10.37;54.87;100482.84;1091382;39;20848;-81
2022/03/17 03:42:37;;;;;;;22.75;20.35;;;;;;;10.26;54.48;100481.94;1088131;54;20022;-81
2022/03/17 03:43:39;;;;;;;21.77;19.42;;;;;;;10.33;54.72;100476.09;1088188;54;20038;-80
2022/03/17 03:44:43;;;;;;;21.10;18.90;;;;;;;10.32;54.77;100480.56;1088268;54;20135;-80
2022/03/17 03:45:45;;;;;;;22.63;20.00;;;;;;;10.25;54.66;100487.41;1094074;39;20673;-81
2022/03/17 03:46:49;;;;;;;23.75;21.25;;;;;;;10.26;54.86;100478.44;1088445;54;20119;-80
2022/03/17 03:47:50;;;;;;;22.23;19.27;;;;;;;10.29;54.76;100480.84;1088463;54;20034;-81
2022/03/17 03:48:54;;;;;;;23.15;20.70;;;;;;;10.33;54.57;100484.09;1088382;54;20025;-81
2022/03/17 03:49:56;;;;;;;25.48;21.92;;;;;;;10.31;54.64;100478.88;1098074;39;20645;-81
2022/03/17 03:51:00;;;;;;;24.25;20.95;;;;;;;10.35;54.59;100482.97;1092801;31;20682;-81
2022/03/17 03:52:02;;;;;;;23.08;20.52;;;;;;;10.33;54.38;100482.25;1088437;54;20018;-82
2022/03/17 03:53:06;;;;;;;21.67;19.35;;;;;;;10.34;54.65;100489.31;1088444;54;20070;-80
2022/03/17 03:54:15;;;;;;;23.25;19.90;;;;;;;10.33;54.61;100476.09;1088467;54;20030;-81
2022/03/17 03:55:20;;;;;;;21.75;19.25;;;;;;;10.33;54.77;100481.44;1088492;54;20031;-80
2022/03/17 03:56:21;;;;;;;22.70;20.08;;;;;;;10.27;54.41;100488.16;1088393;54;20034;-80
2022/03/17 03:57:25;;;;;;;23.60;21.10;;;;;;;10.24;54.25;100483.91;1088179;54;20041;-81
2022/03/17 03:58:29;;;;;;;23.05;20.55;;;;;;;10.28;54.55;100481.81;1088179;54;20037;-80
2022/03/17 03:59:34;;;;;;;24.17;20.67;;;;;;;10.27;54.50;100480.13;1088470;54;20037;-80
2022/03/17 04:00:35;;;;;;;24.08;21.48;;;;;;;10.21;54.46;100478.81;1091307;46;20038;-81
2022/03/17 04:01:39;;;;;;;24.98;21.90;;;;;;;10.15;54.53;100484.72;1088425;54;20021;-81
2022/03/17 04:02:43;;;;;;;23.90;21.10;;;;;;;10.18;54.51;100480.91;1088526;54;20030;-79
2022/03/17 04:03:45;;;;;;;22.73;20.27;;;;;;;10.20;54.64;100481.63;1088469;54;20030;-81
2022/03/17 04:04:49;;;;;;;22.70;20.20;;;;;;;10.26;54.23;100489.13;1088446;54;20108;-79
2022/03/17 04:05:51;;;;;;;25.27;21.05;;;;;;;10.20;54.45;100490.50;1088554;54;20022;-80
2022/03/17 04:06:58;;;;;;;22.77;19.95;;;;;;;10.24;54.50;100488.41;1089206;46;20058;-81
2022/03/17 04:08:11;;;;;;;22.75;20.10;;;;;;;10.23;54.19;100497.38;1088570;54;20038;-80
2022/03/17 04:09:13;;;;;;;24.40;20.63;;;;;;;10.22;54.23;100496.56;1088757;47;20023;-81
2022/03/17 04:10:20;;;;;;;25.40;19.92;;;;;;;10.24;54.37;100493.75;1088500;54;20031;-81
2022/03/17 04:11:21;;;;;;;21.10;18.58;;;;;;;10.30;54.08;100490.53;1091679;46;20053;-80
2022/03/17 04:12:33;;;;;;;20.75;18.52;;;;;;;10.33;54.19;100497.47;1088645;54;20026;-82
2022/03/17 04:13:37;;;;;;;20.20;17.65;;;;;;;10.36;54.18;100498.03;1088503;54;20023;-81
2022/03/17 04:14:44;;;;;;;19.65;17.08;;;;;;;10.40;54.14;100494.13;1088297;54;20102;-81
2022/03/17 04:15:45;;;;;;;20.83;15.85;;;;;;;10.41;53.95;100501.19;1088527;54;20054;-82
2022/03/17 04:16:51;;;;;;;18.73;16.60;;;;;;;10.41;53.88;100503.84;1098037;39;20554;-81
2022/03/17 04:17:53;;;;;;;19.02;16.95;;;;;;;10.39;53.92;100504.97;1088587;54;20750;-81
2022/03/17 04:18:59;;;;;;;20.20;18.02;;;;;;;10.40;53.92;100509.34;1088503;54;20022;-81
2022/03/17 04:20:05;;;;;;;21.35;17.73;;;;;;;10.41;53.77;100506.53;1089634;46;20030;-80
2022/03/17 04:21:10;;;;;;;21.42;18.35;;;;;;;10.40;53.91;100509.34;1088543;54;20087;-82
2022/03/17 04:22:16;;;;;;;19.15;16.75;;;;;;;10.41;53.89;100509.19;1088466;54;20030;-81
2022/03/17 04:23:18;;;;;;;19.05;17.05;;;;;;;10.41;53.47;100509.19;1088578;54;20007;-81
2022/03/17 04:24:42;;;;;;;18.90;16.77;;;;;;;10.38;53.28;100509.47;1088597;54;20029;-82
2022/03/17 04:25:43;;;;;;;19.42;17.13;;;;;;;10.39;53.51;100513.81;1088510;54;20041;-82
2022/03/17 04:27:05;;;;;;;20.02;17.85;;;;;;;10.30;53.61;100510.09;1088481;54;20025;-82
2022/03/17 04:28:14;;;;;;;20.60;17.35;;;;;;;10.29;54.07;100524.44;1088594;54;20015;-80
2022/03/17 04:29:28;;;;;;;18.10;15.65;;;;;;;10.37;53.65;100520.25;1088557;54;20042;-80
2022/03/17 04:30:29;;;;;;;17.50;15.52;;;;;;;10.42;53.85;100516.25;1088548;54;20049;-80
2022/03/17 04:31:46;;;;;;;18.38;15.70;;;;;;;10.47;53.59;100520.34;1088514;54;20021;-82
2022/03/17 04:32:49;;;;;;;18.80;16.33;;;;;;;10.46;53.83;100514.16;1088070;54;20023;-80
2022/03/17 04:33:54;;;;;;;16.45;14.20;;;;;;;10.54;53.73;100521.50;1088625;54;20018;-82
2022/03/17 04:34:59;;;;;;;17.48;14.45;;;;;;;10.57;53.52;100515.91;1088572;54;20029;-80
2022/03/17 04:36:04;;;;;;;17.70;15.52;;;;;;;10.60;53.74;100513.81;1088549;54;20034;-81
2022/03/17 04:37:23;;;;;;;16.92;14.30;;;;;;;10.60;53.44;100520.97;1088588;54;20070;-79
2022/03/17 04:38:25;;;;;;;17.65;15.50;;;;;;;10.57;53.57;100522.09;1099275;46;20045;-81
2022/03/17 04:41:18;;;;;;;;;;;;;;;;;;;;;
2022/03/17 04:42:38;;;;;;;20.75;16.98;;;;;;;10.47;53.55;100525.69;1088278;54;20034;-80
2022/03/17 04:43:54;;;;;;;20.60;17.17;;;;;;;10.49;53.57;100521.91;1088426;54;20021;-82
2022/03/17 04:45:15;;;;;;;19.73;17.63;;;;;;;10.45;53.65;100526.69;1088365;54;20030;-81
2022/03/17 04:47:48;;;;;;;21.85;17.58;;;;;;;10.39;53.66;100526.34;1092737;39;20801;-80
2022/03/17 04:48:50;;;;;;;21.48;19.15;;;;;;;10.41;53.44;100532.41;1088179;54;20046;-83
2022/03/17 04:49:54;;;;;;;22.90;18.52;;;;;;;10.38;53.35;100532.66;1088396;54;20030;-81
2022/03/17 04:51:02;;;;;;;21.23;18.92;;;;;;;10.36;53.50;100527.44;1088526;54;20018;-81
2022/03/17 04:53:26;;;;;;;20.50;18.27;;;;;;;10.37;53.34;100530.94;1088444;54;20019;-81
2022/03/17 04:53:32;;;;;;;21.05;17.77;;;;;;;10.35;53.69;100527.53;1088422;54;20070;-82
2022/03/17 04:54:36;;;;;;;18.73;16.73;;;;;;;10.38;53.60;100528.19;1088376;54;20039;-81
2022/03/17 04:55:38;;;;;;;19.75;17.40;;;;;;;10.36;53.42;100531.91;1088452;54;20018;-81
2022/03/17 04:56:43;;;;;;;18.83;16.67;;;;;;;10.39;53.48;100537.88;1088372;54;20014;-81
2022/03/17 04:57:46;;;;;;;18.63;16.58;;;;;;;10.41;53.38;100530.56;1088441;54;20046;-81
2022/03/17 04:58:50;;;;;;;19.27;16.52;;;;;;;10.44;53.14;100542.81;1088185;54;20018;-80
2022/03/17 04:59:54;;;;;;;16.73;14.82;;;;;;;10.48;53.15;100538.09;1088377;54;20021;-81
2022/03/17 05:01:01;;;;;;;18.73;16.65;;;;;;;10.51;52.98;100540.47;1088502;54;20025;-82
2022/03/17 05:02:04;;;;;;;18.38;15.85;;;;;;;10.49;53.11;100539.75;1089324;39;20657;-80
2022/03/17 05:03:09;;;;;;;18.40;15.50;;;;;;;10.50;52.78;100547.66;1088409;54;20034;-79
2022/03/17 05:04:11;;;;;;;17.48;15.07;;;;;;;10.51;52.88;100545.81;1089575;39;20681;-80
2022/03/17 05:05:15;;;;;;;18.48;15.98;;;;;;;10.50;53.02;100549.47;1087970;54;20035;-79
2022/03/17 05:06:19;;;;;;;21.85;17.75;;;;;;;10.47;52.79;100549.75;1088249;54;20035;-79
2022/03/17 05:07:45;;;;;;;20.08;17.98;;;;;;;10.37;52.97;100541.63;1088415;54;20027;-81
2022/03/17 05:08:59;;;;;;;22.05;19.60;;;;;;;10.30;52.92;100544.84;1088413;54;20057;-79
2022/03/17 05:10:03;;;;;;;20.88;18.25;;;;;;;10.26;53.20;100546.06;1088444;54;20014;-80
2022/03/17 05:11:13;;;;;;;22.42;20.02;;;;;;;10.27;53.17;100545.09;1088344;54;20026;-81
2022/03/17 05:12:16;;;;;;;21.33;18.63;;;;;;;10.24;53.26;100547.19;1088339;54;20034;-81
2022/03/17 05:13:30;;;;;;;22.42;19.90;;;;;;;10.26;53.45;100546.06;1088402;54;20058;-81
2022/03/17 05:14:32;;;;;;;21.27;18.13;;;;;;;10.32;53.18;100546.53;1089269;39;20713;-80
2022/03/17 05:15:39;;;;;;;21.63;18.35;;;;;;;10.33;53.46;100541.06;1088371;54;20026;-80
2022/03/17 05:16:43;;;;;;;19.67;17.58;;;;;;;10.38;53.21;100544.22;1088418;54;20043;-80
2022/03/17 05:17:49;;;;;;;18.25;14.98;;;;;;;10.42;52.90;100542.13;1088400;54;20026;-79
2022/03/17 05:18:54;;;;;;;19.92;16.35;;;;;;;10.41;53.06;100549.28;1088391;54;20023;-81
2022/03/17 05:19:56;;;;;;;17.92;16.02;;;;;;;10.41;52.83;100545.78;1090930;46;20050;-81
2022/03/17 05:21:01;;;;;;;20.15;17.38;;;;;;;10.38;52.77;100554.91;1088201;54;20743;-82
2022/03/17 05:22:03;;;;;;;19.33;15.50;;;;;;;10.41;52.84;100557.31;1091103;39;20285;-80
2022/03/17 05:23:08;;;;;;;18.85;15.90;;;;;;;10.44;52.77;100550.84;1088303;54;20030;-80
2022/03/17 05:24:10;;;;;;;22.38;18.45;;;;;;;10.40;52.92;100558.28;1088262;54;20038;-79